Peawanuck Airport
CYPO : now visible

Airfield :











YOU CAN JOIN US ON...

 
LOGIN :

Register | Disclaimer

   EN    FR    IT 

 









Legend :    VFR   Marginal VFR   IFR   Intensive IFR   Very Intensive IFR
Visi :
Ceiling :
>= 8 km
>= 3000ft
5 to 8 km
1000 to 3000 ft
1500m to 5 km
500 to 1000 ft
800 to 1500m
200 to 500 ft
< 800m
< 200 ft
Symbols :   Thunderstorms  Fog  Heavy snow  Heavy precipitations  Wind > 20 kt






- Airport Elevation : 173 ft
- IATA code : YPO


CYPO - Peawanuck

CURRENT METAR :
  • 250100Z AUTO 20005KT 9SM CLR 11/09 A2968 RMK SLP055

EXPIRED METARs :
  • 250000Z AUTO 17003KT 9SM CLR 13/10 A2968 RMK ICE MISG SLP054 DENSITY ALT 200FT
  • 242300Z AUTO 26003KT 9SM CLR 18/08 A2969 RMK SLP055 DENSITY ALT 900FT

TAF N/A
CZWG FIR / North America



MET'MAP, your aeronautical weather chart ! - Copyright ORBIFLY December 2007 - Disclaimer

ORBIFLY MET'MAP TEAM :

Programming & Development : Alexandra Zaïnal
Original concept : Baudouin d'Aumeries
Technical & hardware support : Manuel Goepfert
Assistance : Marc-Olivier Méhu




SOURCES & CREDITS :

   NOAA       Earth
Advisory